sensor_id;sensor_type;location;lat;lon;timestamp;P1;durP1;ratioP1;P2;durP2;ratioP2
29214;SDS011;16252;49.816;7.964;2022-08-01T00:00:18;0.77;;;0.60;;
29214;SDS011;16252;49.816;7.964;2022-08-01T00:02:44;1.40;;;0.60;;
29214;SDS011;16252;49.816;7.964;2022-08-01T00:05:09;0.60;;;0.60;;
29214;SDS011;16252;49.816;7.964;2022-08-01T00:07:35;1.15;;;0.70;;
29214;SDS011;16252;49.816;7.964;2022-08-01T00:10:02;1.88;;;0.70;;
29214;SDS011;16252;49.816;7.964;2022-08-01T00:12:29;0.95;;;0.77;;
29214;SDS011;16252;49.816;7.964;2022-08-01T00:14:54;0.40;;;0.40;;
29214;SDS011;16252;49.816;7.964;2022-08-01T00:17:20;2.33;;;0.60;;
29214;SDS011;16252;49.816;7.964;2022-08-01T00:19:45;0.40;;;0.40;;
29214;SDS011;16252;49.816;7.964;2022-08-01T00:22:10;0.65;;;0.50;;
29214;SDS011;16252;49.816;7.964;2022-08-01T00:24:35;0.75;;;0.55;;
29214;SDS011;16252;49.816;7.964;2022-08-01T00:27:01;0.60;;;0.57;;
29214;SDS011;16252;49.816;7.964;2022-08-01T00:29:26;0.55;;;0.55;;
29214;SDS011;16252;49.816;7.964;2022-08-01T00:31:51;0.68;;;0.63;;
29214;SDS011;16252;49.816;7.964;2022-08-01T00:34:17;0.60;;;0.50;;
29214;SDS011;16252;49.816;7.964;2022-08-01T00:36:42;0.82;;;0.60;;
29214;SDS011;16252;49.816;7.964;2022-08-01T00:39:08;1.17;;;0.50;;
29214;SDS011;16252;49.816;7.964;2022-08-01T00:41:33;1.15;;;0.60;;
29214;SDS011;16252;49.816;7.964;2022-08-01T00:44:01;0.80;;;0.40;;
29214;SDS011;16252;49.816;7.964;2022-08-01T00:46:28;0.70;;;0.55;;
29214;SDS011;16252;49.816;7.964;2022-08-01T00:48:53;0.75;;;0.50;;
29214;SDS011;16252;49.816;7.964;2022-08-01T00:51:19;1.20;;;0.50;;
29214;SDS011;16252;49.816;7.964;2022-08-01T00:53:45;1.40;;;0.60;;
29214;SDS011;16252;49.816;7.964;2022-08-01T00:56:10;1.52;;;0.70;;
29214;SDS011;16252;49.816;7.964;2022-08-01T00:58:36;0.85;;;0.73;;
29214;SDS011;16252;49.816;7.964;2022-08-01T01:01:01;1.00;;;0.60;;
29214;SDS011;16252;49.816;7.964;2022-08-01T01:03:27;0.57;;;0.57;;
29214;SDS011;16252;49.816;7.964;2022-08-01T01:06:00;0.50;;;0.50;;
29214;SDS011;16252;49.816;7.964;2022-08-01T01:08:35;0.55;;;0.55;;
29214;SDS011;16252;49.816;7.964;2022-08-01T01:11:11;1.13;;;0.60;;
29214;SDS011;16252;49.816;7.964;2022-08-01T01:13:46;0.68;;;0.68;;
29214;SDS011;16252;49.816;7.964;2022-08-01T01:16:17;1.42;;;0.90;;
29214;SDS011;16252;49.816;7.964;2022-08-01T01:18:49;0.68;;;0.63;;
29214;SDS011;16252;49.816;7.964;2022-08-01T01:26:40;0.65;;;0.60;;
29214;SDS011;16252;49.816;7.964;2022-08-01T01:29:30;0.60;;;0.60;;
29214;SDS011;16252;49.816;7.964;2022-08-01T01:32:02;0.80;;;0.70;;
29214;SDS011;16252;49.816;7.964;2022-08-01T01:34:32;0.75;;;0.70;;
29214;SDS011;16252;49.816;7.964;2022-08-01T01:37:02;0.73;;;0.60;;
29214;SDS011;16252;49.816;7.964;2022-08-01T01:39:31;1.75;;;0.50;;
29214;SDS011;16252;49.816;7.964;2022-08-01T01:41:57;0.70;;;0.60;;
29214;SDS011;16252;49.816;7.964;2022-08-01T01:44:25;0.80;;;0.60;;
29214;SDS011;16252;49.816;7.964;2022-08-01T01:46:52;0.50;;;0.50;;
29214;SDS011;16252;49.816;7.964;2022-08-01T01:49:23;0.85;;;0.70;;
29214;SDS011;16252;49.816;7.964;2022-08-01T01:51:51;0.70;;;0.70;;
29214;SDS011;16252;49.816;7.964;2022-08-01T01:54:19;0.90;;;0.57;;
29214;SDS011;16252;49.816;7.964;2022-08-01T01:56:46;0.63;;;0.63;;
29214;SDS011;16252;49.816;7.964;2022-08-01T01:59:15;0.60;;;0.60;;
29214;SDS011;16252;49.816;7.964;2022-08-01T02:01:46;0.55;;;0.52;;
29214;SDS011;16252;49.816;7.964;2022-08-01T02:04:13;0.60;;;0.60;;
29214;SDS011;16252;49.816;7.964;2022-08-01T02:06:38;0.93;;;0.63;;
29214;SDS011;16252;49.816;7.964;2022-08-01T02:09:05;1.02;;;0.70;;
29214;SDS011;16252;49.816;7.964;2022-08-01T02:11:33;0.50;;;0.50;;
29214;SDS011;16252;49.816;7.964;2022-08-01T02:14:02;0.70;;;0.60;;
29214;SDS011;16252;49.816;7.964;2022-08-01T02:16:29;0.60;;;0.60;;
29214;SDS011;16252;49.816;7.964;2022-08-01T02:18:56;1.75;;;0.57;;
29214;SDS011;16252;49.816;7.964;2022-08-01T02:21:25;0.63;;;0.50;;
29214;SDS011;16252;49.816;7.964;2022-08-01T02:23:55;1.25;;;0.68;;
29214;SDS011;16252;49.816;7.964;2022-08-01T02:26:28;0.82;;;0.68;;
29214;SDS011;16252;49.816;7.964;2022-08-01T02:28:56;1.45;;;0.70;;
29214;SDS011;16252;49.816;7.964;2022-08-01T02:31:24;0.80;;;0.80;;
29214;SDS011;16252;49.816;7.964;2022-08-01T02:33:57;0.90;;;0.80;;
29214;SDS011;16252;49.816;7.964;2022-08-01T02:36:29;0.70;;;0.65;;
29214;SDS011;16252;49.816;7.964;2022-08-01T02:38:58;1.10;;;0.70;;
29214;SDS011;16252;49.816;7.964;2022-08-01T02:41:26;1.67;;;0.50;;
29214;SDS011;16252;49.816;7.964;2022-08-01T02:43:52;1.35;;;0.68;;
29214;SDS011;16252;49.816;7.964;2022-08-01T02:46:30;0.55;;;0.55;;
29214;SDS011;16252;49.816;7.964;2022-08-01T02:49:00;1.25;;;0.65;;
29214;SDS011;16252;49.816;7.964;2022-08-01T02:51:27;0.88;;;0.68;;
29214;SDS011;16252;49.816;7.964;2022-08-01T02:53:56;1.27;;;0.90;;
29214;SDS011;16252;49.816;7.964;2022-08-01T02:56:23;0.85;;;0.73;;
29214;SDS011;16252;49.816;7.964;2022-08-01T02:58:59;1.38;;;0.77;;
29214;SDS011;16252;49.816;7.964;2022-08-01T03:01:27;1.75;;;0.73;;
29214;SDS011;16252;49.816;7.964;2022-08-01T03:03:53;0.68;;;0.65;;
29214;SDS011;16252;49.816;7.964;2022-08-01T03:06:18;0.70;;;0.70;;
29214;SDS011;16252;49.816;7.964;2022-08-01T03:08:44;2.45;;;0.88;;
29214;SDS011;16252;49.816;7.964;2022-08-01T03:11:11;1.33;;;0.82;;
29214;SDS011;16252;49.816;7.964;2022-08-01T03:13:38;1.10;;;0.80;;
29214;SDS011;16252;49.816;7.964;2022-08-01T03:16:06;1.33;;;0.77;;
29214;SDS011;16252;49.816;7.964;2022-08-01T03:18:33;0.85;;;0.70;;
29214;SDS011;16252;49.816;7.964;2022-08-01T03:21:01;1.77;;;0.77;;
29214;SDS011;16252;49.816;7.964;2022-08-01T03:23:27;1.20;;;0.70;;
29214;SDS011;16252;49.816;7.964;2022-08-01T03:25:54;0.95;;;0.68;;
29214;SDS011;16252;49.816;7.964;2022-08-01T03:28:21;0.77;;;0.60;;
29214;SDS011;16252;49.816;7.964;2022-08-01T03:30:47;0.68;;;0.68;;
29214;SDS011;16252;49.816;7.964;2022-08-01T03:33:14;1.33;;;0.70;;
29214;SDS011;16252;49.816;7.964;2022-08-01T03:35:42;0.70;;;0.70;;
29214;SDS011;16252;49.816;7.964;2022-08-01T03:38:12;0.77;;;0.57;;
29214;SDS011;16252;49.816;7.964;2022-08-01T03:40:43;0.55;;;0.55;;
29214;SDS011;16252;49.816;7.964;2022-08-01T03:43:15;0.57;;;0.57;;
29214;SDS011;16252;49.816;7.964;2022-08-01T03:45:46;0.57;;;0.50;;
29214;SDS011;16252;49.816;7.964;2022-08-01T03:48:18;0.80;;;0.80;;
29214;SDS011;16252;49.816;7.964;2022-08-01T03:50:48;1.00;;;0.80;;
29214;SDS011;16252;49.816;7.964;2022-08-01T03:53:16;1.10;;;0.70;;
29214;SDS011;16252;49.816;7.964;2022-08-01T03:55:47;0.80;;;0.70;;
29214;SDS011;16252;49.816;7.964;2022-08-01T03:58:14;1.67;;;0.82;;
29214;SDS011;16252;49.816;7.964;2022-08-01T04:00:40;0.73;;;0.60;;
29214;SDS011;16252;49.816;7.964;2022-08-01T04:03:07;1.13;;;0.77;;
29214;SDS011;16252;49.816;7.964;2022-08-01T04:05:33;0.95;;;0.70;;
29214;SDS011;16252;49.816;7.964;2022-08-01T04:07:59;1.42;;;1.00;;
29214;SDS011;16252;49.816;7.964;2022-08-01T04:10:27;0.77;;;0.60;;
29214;SDS011;16252;49.816;7.964;2022-08-01T04:12:52;0.63;;;0.63;;
29214;SDS011;16252;49.816;7.964;2022-08-01T04:15:18;1.20;;;0.95;;
29214;SDS011;16252;49.816;7.964;2022-08-01T04:17:45;1.73;;;0.90;;
29214;SDS011;16252;49.816;7.964;2022-08-01T04:20:10;1.85;;;1.05;;
29214;SDS011;16252;49.816;7.964;2022-08-01T04:22:36;1.13;;;0.77;;
29214;SDS011;16252;49.816;7.964;2022-08-01T04:25:02;1.05;;;0.70;;
29214;SDS011;16252;49.816;7.964;2022-08-01T04:27:35;1.27;;;0.80;;
29214;SDS011;16252;49.816;7.964;2022-08-01T04:30:02;0.63;;;0.63;;
29214;SDS011;16252;49.816;7.964;2022-08-01T04:32:29;1.33;;;0.82;;
29214;SDS011;16252;49.816;7.964;2022-08-01T04:34:58;1.13;;;0.90;;
29214;SDS011;16252;49.816;7.964;2022-08-01T04:37:27;0.98;;;0.68;;
29214;SDS011;16252;49.816;7.964;2022-08-01T04:39:53;1.20;;;0.60;;
29214;SDS011;16252;49.816;7.964;2022-08-01T04:42:21;0.85;;;0.63;;
29214;SDS011;16252;49.816;7.964;2022-08-01T04:44:46;0.90;;;0.80;;
29214;SDS011;16252;49.816;7.964;2022-08-01T04:47:11;0.98;;;0.73;;
29214;SDS011;16252;49.816;7.964;2022-08-01T04:49:38;0.65;;;0.65;;
29214;SDS011;16252;49.816;7.964;2022-08-01T04:52:04;1.10;;;0.90;;
29214;SDS011;16252;49.816;7.964;2022-08-01T04:54:31;0.93;;;0.60;;
29214;SDS011;16252;49.816;7.964;2022-08-01T04:56:58;0.85;;;0.60;;
29214;SDS011;16252;49.816;7.964;2022-08-01T04:59:28;0.93;;;0.57;;
29214;SDS011;16252;49.816;7.964;2022-08-01T05:02:07;1.85;;;0.77;;
29214;SDS011;16252;49.816;7.964;2022-08-01T05:04:38;1.58;;;0.90;;
29214;SDS011;16252;49.816;7.964;2022-08-01T05:07:04;1.52;;;0.80;;
29214;SDS011;16252;49.816;7.964;2022-08-01T05:09:31;1.77;;;1.00;;
29214;SDS011;16252;49.816;7.964;2022-08-01T05:11:57;4.05;;;1.13;;
29214;SDS011;16252;49.816;7.964;2022-08-01T05:14:27;1.02;;;0.60;;
29214;SDS011;16252;49.816;7.964;2022-08-01T05:16:53;0.93;;;0.65;;
29214;SDS011;16252;49.816;7.964;2022-08-01T05:19:19;0.93;;;0.60;;
29214;SDS011;16252;49.816;7.964;2022-08-01T05:21:45;1.50;;;0.82;;
29214;SDS011;16252;49.816;7.964;2022-08-01T05:24:10;1.95;;;0.68;;
29214;SDS011;16252;49.816;7.964;2022-08-01T05:26:37;2.17;;;0.80;;
29214;SDS011;16252;49.816;7.964;2022-08-01T05:29:03;0.90;;;0.70;;
29214;SDS011;16252;49.816;7.964;2022-08-01T05:31:28;0.85;;;0.85;;
29214;SDS011;16252;49.816;7.964;2022-08-01T05:33:53;0.93;;;0.70;;
29214;SDS011;16252;49.816;7.964;2022-08-01T05:36:19;0.98;;;0.60;;
29214;SDS011;16252;49.816;7.964;2022-08-01T05:38:44;1.15;;;0.70;;
29214;SDS011;16252;49.816;7.964;2022-08-01T05:41:10;1.50;;;0.70;;
29214;SDS011;16252;49.816;7.964;2022-08-01T05:43:35;1.02;;;0.73;;
29214;SDS011;16252;49.816;7.964;2022-08-01T05:46:00;1.70;;;0.60;;
29214;SDS011;16252;49.816;7.964;2022-08-01T05:48:26;1.83;;;0.75;;
29214;SDS011;16252;49.816;7.964;2022-08-01T05:50:51;0.98;;;0.70;;
29214;SDS011;16252;49.816;7.964;2022-08-01T05:53:17;1.85;;;0.70;;
29214;SDS011;16252;49.816;7.964;2022-08-01T05:55:43;0.82;;;0.80;;
29214;SDS011;16252;49.816;7.964;2022-08-01T05:58:08;1.45;;;0.80;;
29214;SDS011;16252;49.816;7.964;2022-08-01T06:00:33;0.85;;;0.38;;
29214;SDS011;16252;49.816;7.964;2022-08-01T06:02:59;0.80;;;0.60;;
29214;SDS011;16252;49.816;7.964;2022-08-01T06:05:24;0.65;;;0.60;;
29214;SDS011;16252;49.816;7.964;2022-08-01T06:07:49;0.60;;;0.60;;
29214;SDS011;16252;49.816;7.964;2022-08-01T06:10:14;0.60;;;0.55;;
29214;SDS011;16252;49.816;7.964;2022-08-01T06:12:40;1.77;;;0.80;;
29214;SDS011;16252;49.816;7.964;2022-08-01T06:15:05;1.67;;;0.70;;
29214;SDS011;16252;49.816;7.964;2022-08-01T06:17:31;1.73;;;0.80;;
29214;SDS011;16252;49.816;7.964;2022-08-01T06:19:56;0.60;;;0.60;;
29214;SDS011;16252;49.816;7.964;2022-08-01T06:22:22;0.82;;;0.70;;
29214;SDS011;16252;49.816;7.964;2022-08-01T06:24:47;1.00;;;0.63;;
29214;SDS011;16252;49.816;7.964;2022-08-01T06:27:13;0.95;;;0.65;;
29214;SDS011;16252;49.816;7.964;2022-08-01T06:29:38;0.57;;;0.55;;
29214;SDS011;16252;49.816;7.964;2022-08-01T06:32:03;0.70;;;0.60;;
29214;SDS011;16252;49.816;7.964;2022-08-01T06:34:29;0.60;;;0.50;;
29214;SDS011;16252;49.816;7.964;2022-08-01T06:36:54;1.15;;;0.85;;
29214;SDS011;16252;49.816;7.964;2022-08-01T06:39:19;1.92;;;0.75;;
29214;SDS011;16252;49.816;7.964;2022-08-01T06:41:45;0.95;;;0.63;;
29214;SDS011;16252;49.816;7.964;2022-08-01T06:44:12;0.90;;;0.57;;
29214;SDS011;16252;49.816;7.964;2022-08-01T06:46:38;0.57;;;0.57;;
29214;SDS011;16252;49.816;7.964;2022-08-01T06:49:03;0.95;;;0.65;;
29214;SDS011;16252;49.816;7.964;2022-08-01T06:51:28;0.63;;;0.55;;
29214;SDS011;16252;49.816;7.964;2022-08-01T06:53:54;1.73;;;0.80;;
29214;SDS011;16252;49.816;7.964;2022-08-01T06:56:19;1.55;;;1.02;;
29214;SDS011;16252;49.816;7.964;2022-08-01T06:58:45;1.35;;;0.70;;
29214;SDS011;16252;49.816;7.964;2022-08-01T07:01:10;1.60;;;0.70;;
29214;SDS011;16252;49.816;7.964;2022-08-01T07:03:36;0.47;;;0.43;;
29214;SDS011;16252;49.816;7.964;2022-08-01T07:06:02;0.88;;;0.60;;
29214;SDS011;16252;49.816;7.964;2022-08-01T07:08:28;2.85;;;0.80;;
29214;SDS011;16252;49.816;7.964;2022-08-01T07:10:53;2.05;;;1.00;;
29214;SDS011;16252;49.816;7.964;2022-08-01T07:13:18;1.00;;;0.82;;
29214;SDS011;16252;49.816;7.964;2022-08-01T07:15:48;0.90;;;0.77;;
29214;SDS011;16252;49.816;7.964;2022-08-01T07:18:13;1.05;;;0.75;;
29214;SDS011;16252;49.816;7.964;2022-08-01T07:20:38;0.77;;;0.77;;
29214;SDS011;16252;49.816;7.964;2022-08-01T07:23:04;0.77;;;0.77;;
29214;SDS011;16252;49.816;7.964;2022-08-01T07:25:29;0.95;;;0.60;;
29214;SDS011;16252;49.816;7.964;2022-08-01T07:27:54;0.98;;;0.77;;
29214;SDS011;16252;49.816;7.964;2022-08-01T07:30:20;0.90;;;0.80;;
29214;SDS011;16252;49.816;7.964;2022-08-01T07:32:45;0.80;;;0.70;;
29214;SDS011;16252;49.816;7.964;2022-08-01T07:35:10;0.75;;;0.75;;
29214;SDS011;16252;49.816;7.964;2022-08-01T07:37:36;1.42;;;1.08;;
29214;SDS011;16252;49.816;7.964;2022-08-01T07:40:01;1.60;;;1.00;;
29214;SDS011;16252;49.816;7.964;2022-08-01T07:42:29;1.50;;;1.00;;
29214;SDS011;16252;49.816;7.964;2022-08-01T07:44:54;0.85;;;0.82;;
29214;SDS011;16252;49.816;7.964;2022-08-01T07:47:26;0.85;;;0.68;;
29214;SDS011;16252;49.816;7.964;2022-08-01T07:49:52;0.73;;;0.70;;
29214;SDS011;16252;49.816;7.964;2022-08-01T07:52:23;0.60;;;0.60;;
29214;SDS011;16252;49.816;7.964;2022-08-01T07:54:48;0.68;;;0.65;;
29214;SDS011;16252;49.816;7.964;2022-08-01T07:57:14;0.75;;;0.75;;
29214;SDS011;16252;49.816;7.964;2022-08-01T07:59:39;0.82;;;0.70;;
29214;SDS011;16252;49.816;7.964;2022-08-01T08:02:04;0.70;;;0.70;;
29214;SDS011;16252;49.816;7.964;2022-08-01T08:04:29;0.70;;;0.55;;
29214;SDS011;16252;49.816;7.964;2022-08-01T08:06:55;0.80;;;0.80;;
29214;SDS011;16252;49.816;7.964;2022-08-01T08:09:20;0.73;;;0.70;;
29214;SDS011;16252;49.816;7.964;2022-08-01T08:11:46;1.00;;;0.73;;
29214;SDS011;16252;49.816;7.964;2022-08-01T08:14:11;2.97;;;0.80;;
29214;SDS011;16252;49.816;7.964;2022-08-01T08:16:37;0.75;;;0.65;;
29214;SDS011;16252;49.816;7.964;2022-08-01T08:19:03;0.70;;;0.70;;
29214;SDS011;16252;49.816;7.964;2022-08-01T08:21:28;1.08;;;0.80;;
29214;SDS011;16252;49.816;7.964;2022-08-01T08:23:55;0.85;;;0.77;;
29214;SDS011;16252;49.816;7.964;2022-08-01T08:26:39;1.13;;;0.75;;
29214;SDS011;16252;49.816;7.964;2022-08-01T08:29:04;0.77;;;0.77;;
29214;SDS011;16252;49.816;7.964;2022-08-01T08:31:29;0.80;;;0.77;;
29214;SDS011;16252;49.816;7.964;2022-08-01T08:33:54;0.80;;;0.80;;
29214;SDS011;16252;49.816;7.964;2022-08-01T08:36:20;1.20;;;1.10;;
29214;SDS011;16252;49.816;7.964;2022-08-01T08:38:45;1.50;;;1.02;;
29214;SDS011;16252;49.816;7.964;2022-08-01T08:41:10;1.17;;;1.00;;
29214;SDS011;16252;49.816;7.964;2022-08-01T08:43:36;0.80;;;0.80;;
29214;SDS011;16252;49.816;7.964;2022-08-01T08:46:02;0.70;;;0.60;;
29214;SDS011;16252;49.816;7.964;2022-08-01T08:48:27;1.42;;;1.15;;
29214;SDS011;16252;49.816;7.964;2022-08-01T08:50:54;1.05;;;0.77;;
29214;SDS011;16252;49.816;7.964;2022-08-01T08:53:22;1.40;;;0.90;;
29214;SDS011;16252;49.816;7.964;2022-08-01T08:55:48;0.95;;;0.80;;
29214;SDS011;16252;49.816;7.964;2022-08-01T08:58:13;0.57;;;0.57;;
29214;SDS011;16252;49.816;7.964;2022-08-01T09:00:42;1.38;;;0.80;;
29214;SDS011;16252;49.816;7.964;2022-08-01T09:03:08;0.57;;;0.57;;
29214;SDS011;16252;49.816;7.964;2022-08-01T09:05:33;0.70;;;0.68;;
29214;SDS011;16252;49.816;7.964;2022-08-01T09:07:59;0.52;;;0.50;;
29214;SDS011;16252;49.816;7.964;2022-08-01T09:10:24;0.57;;;0.47;;
29214;SDS011;16252;49.816;7.964;2022-08-01T09:13:06;0.77;;;0.60;;
29214;SDS011;16252;49.816;7.964;2022-08-01T09:15:39;2.17;;;0.60;;
29214;SDS011;16252;49.816;7.964;2022-08-01T09:23:32;0.70;;;0.70;;
29214;SDS011;16252;49.816;7.964;2022-08-01T09:25:58;1.33;;;0.82;;
29214;SDS011;16252;49.816;7.964;2022-08-01T09:28:28;0.60;;;0.57;;
29214;SDS011;16252;49.816;7.964;2022-08-01T09:30:55;0.88;;;0.68;;
29214;SDS011;16252;49.816;7.964;2022-08-01T09:33:23;1.13;;;0.82;;
29214;SDS011;16252;49.816;7.964;2022-08-01T09:35:55;1.55;;;0.73;;
29214;SDS011;16252;49.816;7.964;2022-08-01T09:38:22;0.63;;;0.63;;
29214;SDS011;16252;49.816;7.964;2022-08-01T09:40:52;1.20;;;0.80;;
29214;SDS011;16252;49.816;7.964;2022-08-01T09:43:22;1.15;;;0.60;;
29214;SDS011;16252;49.816;7.964;2022-08-01T09:45:49;0.90;;;0.63;;
29214;SDS011;16252;49.816;7.964;2022-08-01T09:48:14;0.80;;;0.80;;
29214;SDS011;16252;49.816;7.964;2022-08-01T09:53:10;0.63;;;0.63;;
29214;SDS011;16252;49.816;7.964;2022-08-01T09:55:36;0.55;;;0.55;;
29214;SDS011;16252;49.816;7.964;2022-08-01T09:58:03;1.02;;;0.50;;
29214;SDS011;16252;49.816;7.964;2022-08-01T10:00:29;0.60;;;0.60;;
29214;SDS011;16252;49.816;7.964;2022-08-01T10:02:55;0.40;;;0.40;;
29214;SDS011;16252;49.816;7.964;2022-08-01T10:05:30;0.50;;;0.50;;
29214;SDS011;16252;49.816;7.964;2022-08-01T10:08:00;0.60;;;0.60;;
29214;SDS011;16252;49.816;7.964;2022-08-01T10:10:28;0.80;;;0.80;;
29214;SDS011;16252;49.816;7.964;2022-08-01T10:12:53;0.70;;;0.70;;
29214;SDS011;16252;49.816;7.964;2022-08-01T10:15:21;0.60;;;0.60;;
29214;SDS011;16252;49.816;7.964;2022-08-01T10:17:53;0.60;;;0.60;;
29214;SDS011;16252;49.816;7.964;2022-08-01T10:20:22;0.43;;;0.43;;
29214;SDS011;16252;49.816;7.964;2022-08-01T10:22:57;0.70;;;0.70;;
29214;SDS011;16252;49.816;7.964;2022-08-01T10:25:24;0.65;;;0.65;;
29214;SDS011;16252;49.816;7.964;2022-08-01T10:27:53;0.52;;;0.52;;
29214;SDS011;16252;49.816;7.964;2022-08-01T10:30:21;0.57;;;0.57;;
29214;SDS011;16252;49.816;7.964;2022-08-01T10:32:47;0.52;;;0.50;;
29214;SDS011;16252;49.816;7.964;2022-08-01T10:35:13;0.80;;;0.70;;
29214;SDS011;16252;49.816;7.964;2022-08-01T10:37:43;0.82;;;0.63;;
29214;SDS011;16252;49.816;7.964;2022-08-01T10:40:11;0.80;;;0.70;;
29214;SDS011;16252;49.816;7.964;2022-08-01T10:42:39;0.57;;;0.55;;
29214;SDS011;16252;49.816;7.964;2022-08-01T10:45:06;2.33;;;0.60;;
29214;SDS011;16252;49.816;7.964;2022-08-01T10:47:37;0.50;;;0.50;;
29214;SDS011;16252;49.816;7.964;2022-08-01T10:52:38;0.40;;;0.40;;
29214;SDS011;16252;49.816;7.964;2022-08-01T10:55:04;0.63;;;0.63;;
29214;SDS011;16252;49.816;7.964;2022-08-01T10:57:43;1.08;;;0.70;;
29214;SDS011;16252;49.816;7.964;2022-08-01T11:00:18;0.98;;;0.65;;
29214;SDS011;16252;49.816;7.964;2022-08-01T11:02:58;0.40;;;0.40;;
29214;SDS011;16252;49.816;7.964;2022-08-01T11:05:26;0.50;;;0.40;;
29214;SDS011;16252;49.816;7.964;2022-08-01T11:07:53;1.00;;;0.50;;
29214;SDS011;16252;49.816;7.964;2022-08-01T11:13:05;0.52;;;0.50;;
29214;SDS011;16252;49.816;7.964;2022-08-01T11:15:36;0.60;;;0.60;;
29214;SDS011;16252;49.816;7.964;2022-08-01T11:18:50;1.27;;;0.50;;
29214;SDS011;16252;49.816;7.964;2022-08-01T11:20:57;0.60;;;0.50;;
29214;SDS011;16252;49.816;7.964;2022-08-01T11:23:24;0.50;;;0.50;;
29214;SDS011;16252;49.816;7.964;2022-08-01T11:38:35;0.70;;;0.60;;
29214;SDS011;16252;49.816;7.964;2022-08-01T11:41:11;0.75;;;0.40;;
29214;SDS011;16252;49.816;7.964;2022-08-01T11:46:49;0.70;;;0.70;;
29214;SDS011;16252;49.816;7.964;2022-08-01T11:49:43;0.50;;;0.47;;
29214;SDS011;16252;49.816;7.964;2022-08-01T11:52:14;1.98;;;0.60;;
29214;SDS011;16252;49.816;7.964;2022-08-01T11:54:43;0.60;;;0.60;;
29214;SDS011;16252;49.816;7.964;2022-08-01T11:57:13;0.47;;;0.47;;
29214;SDS011;16252;49.816;7.964;2022-08-01T11:59:44;0.40;;;0.40;;
29214;SDS011;16252;49.816;7.964;2022-08-01T12:02:16;0.85;;;0.65;;
29214;SDS011;16252;49.816;7.964;2022-08-01T12:07:16;0.90;;;0.63;;
29214;SDS011;16252;49.816;7.964;2022-08-01T12:09:43;0.60;;;0.60;;
29214;SDS011;16252;49.816;7.964;2022-08-01T12:12:08;0.60;;;0.60;;
29214;SDS011;16252;49.816;7.964;2022-08-01T12:14:35;0.50;;;0.50;;
29214;SDS011;16252;49.816;7.964;2022-08-01T12:17:00;0.52;;;0.50;;
29214;SDS011;16252;49.816;7.964;2022-08-01T12:19:25;0.40;;;0.40;;
29214;SDS011;16252;49.816;7.964;2022-08-01T12:22:06;0.52;;;0.52;;
29214;SDS011;16252;49.816;7.964;2022-08-01T12:24:35;0.70;;;0.60;;
29214;SDS011;16252;49.816;7.964;2022-08-01T12:27:01;1.15;;;0.60;;
29214;SDS011;16252;49.816;7.964;2022-08-01T12:29:34;0.50;;;0.50;;
29214;SDS011;16252;49.816;7.964;2022-08-01T12:32:01;1.65;;;0.80;;
29214;SDS011;16252;49.816;7.964;2022-08-01T12:34:30;0.70;;;0.60;;
29214;SDS011;16252;49.816;7.964;2022-08-01T12:36:59;0.63;;;0.60;;
29214;SDS011;16252;49.816;7.964;2022-08-01T12:39:30;0.50;;;0.50;;
29214;SDS011;16252;49.816;7.964;2022-08-01T12:41:59;0.70;;;0.70;;
29214;SDS011;16252;49.816;7.964;2022-08-01T12:44:25;0.70;;;0.60;;
29214;SDS011;16252;49.816;7.964;2022-08-01T12:46:52;0.50;;;0.50;;
29214;SDS011;16252;49.816;7.964;2022-08-01T12:49:18;1.30;;;0.60;;
29214;SDS011;16252;49.816;7.964;2022-08-01T12:51:43;0.75;;;0.50;;
29214;SDS011;16252;49.816;7.964;2022-08-01T12:54:09;1.02;;;0.50;;
29214;SDS011;16252;49.816;7.964;2022-08-01T12:56:35;0.73;;;0.43;;
29214;SDS011;16252;49.816;7.964;2022-08-01T12:59:00;0.47;;;0.47;;
29214;SDS011;16252;49.816;7.964;2022-08-01T13:01:27;1.52;;;0.50;;
29214;SDS011;16252;49.816;7.964;2022-08-01T13:04:01;0.50;;;0.50;;
29214;SDS011;16252;49.816;7.964;2022-08-01T13:06:31;0.35;;;0.35;;
29214;SDS011;16252;49.816;7.964;2022-08-01T13:09:04;2.25;;;0.50;;
29214;SDS011;16252;49.816;7.964;2022-08-01T13:11:30;0.50;;;0.50;;
29214;SDS011;16252;49.816;7.964;2022-08-01T13:13:56;0.73;;;0.57;;
29214;SDS011;16252;49.816;7.964;2022-08-01T13:16:22;1.33;;;0.50;;
29214;SDS011;16252;49.816;7.964;2022-08-01T13:18:50;0.40;;;0.40;;
29214;SDS011;16252;49.816;7.964;2022-08-01T13:21:20;0.57;;;0.52;;
29214;SDS011;16252;49.816;7.964;2022-08-01T13:26:41;0.50;;;0.38;;
29214;SDS011;16252;49.816;7.964;2022-08-01T13:29:08;0.50;;;0.50;;
29214;SDS011;16252;49.816;7.964;2022-08-01T13:31:34;0.43;;;0.43;;
29214;SDS011;16252;49.816;7.964;2022-08-01T13:34:01;0.50;;;0.50;;
29214;SDS011;16252;49.816;7.964;2022-08-01T13:36:26;0.40;;;0.40;;
29214;SDS011;16252;49.816;7.964;2022-08-01T13:38:53;0.50;;;0.50;;
29214;SDS011;16252;49.816;7.964;2022-08-01T13:41:38;0.30;;;0.30;;
29214;SDS011;16252;49.816;7.964;2022-08-01T13:44:03;1.95;;;0.60;;
29214;SDS011;16252;49.816;7.964;2022-08-01T13:46:28;1.02;;;0.50;;
29214;SDS011;16252;49.816;7.964;2022-08-01T13:48:54;1.25;;;0.60;;
29214;SDS011;16252;49.816;7.964;2022-08-01T13:51:19;0.50;;;0.50;;
29214;SDS011;16252;49.816;7.964;2022-08-01T13:53:44;0.50;;;0.50;;
29214;SDS011;16252;49.816;7.964;2022-08-01T13:56:09;0.40;;;0.40;;
29214;SDS011;16252;49.816;7.964;2022-08-01T13:58:35;1.20;;;0.68;;
29214;SDS011;16252;49.816;7.964;2022-08-01T14:01:01;0.63;;;0.52;;
29214;SDS011;16252;49.816;7.964;2022-08-01T14:03:26;0.60;;;0.60;;
29214;SDS011;16252;49.816;7.964;2022-08-01T14:05:52;0.50;;;0.50;;
29214;SDS011;16252;49.816;7.964;2022-08-01T14:08:17;0.90;;;0.50;;
29214;SDS011;16252;49.816;7.964;2022-08-01T14:10:43;0.73;;;0.63;;
29214;SDS011;16252;49.816;7.964;2022-08-01T14:13:08;0.60;;;0.60;;
29214;SDS011;16252;49.816;7.964;2022-08-01T14:15:33;0.93;;;0.68;;
29214;SDS011;16252;49.816;7.964;2022-08-01T14:17:59;0.60;;;0.60;;
29214;SDS011;16252;49.816;7.964;2022-08-01T14:20:25;0.50;;;0.50;;
29214;SDS011;16252;49.816;7.964;2022-08-01T14:22:50;0.50;;;0.50;;
29214;SDS011;16252;49.816;7.964;2022-08-01T14:25:15;0.80;;;0.52;;
29214;SDS011;16252;49.816;7.964;2022-08-01T14:27:43;0.50;;;0.50;;
29214;SDS011;16252;49.816;7.964;2022-08-01T14:30:08;0.75;;;0.70;;
29214;SDS011;16252;49.816;7.964;2022-08-01T14:32:35;0.80;;;0.70;;
29214;SDS011;16252;49.816;7.964;2022-08-01T14:35:01;1.75;;;0.95;;
29214;SDS011;16252;49.816;7.964;2022-08-01T14:37:27;0.93;;;0.80;;
29214;SDS011;16252;49.816;7.964;2022-08-01T14:39:54;2.83;;;0.85;;
29214;SDS011;16252;49.816;7.964;2022-08-01T14:42:19;0.93;;;0.65;;
29214;SDS011;16252;49.816;7.964;2022-08-01T14:44:44;1.15;;;0.93;;
29214;SDS011;16252;49.816;7.964;2022-08-01T14:47:10;1.00;;;0.90;;
29214;SDS011;16252;49.816;7.964;2022-08-01T14:49:35;1.05;;;0.93;;
29214;SDS011;16252;49.816;7.964;2022-08-01T14:52:00;0.80;;;0.80;;
29214;SDS011;16252;49.816;7.964;2022-08-01T14:54:25;0.77;;;0.77;;
29214;SDS011;16252;49.816;7.964;2022-08-01T14:56:51;1.30;;;1.00;;
29214;SDS011;16252;49.816;7.964;2022-08-01T14:59:18;1.10;;;1.00;;
29214;SDS011;16252;49.816;7.964;2022-08-01T15:01:43;1.17;;;1.00;;
29214;SDS011;16252;49.816;7.964;2022-08-01T15:04:08;1.30;;;1.00;;
29214;SDS011;16252;49.816;7.964;2022-08-01T15:06:34;1.73;;;1.13;;
29214;SDS011;16252;49.816;7.964;2022-08-01T15:08:59;1.17;;;1.08;;
29214;SDS011;16252;49.816;7.964;2022-08-01T15:11:24;1.92;;;1.10;;
29214;SDS011;16252;49.816;7.964;2022-08-01T15:13:50;1.50;;;1.40;;
29214;SDS011;16252;49.816;7.964;2022-08-01T15:16:35;1.48;;;1.23;;
29214;SDS011;16252;49.816;7.964;2022-08-01T15:19:00;1.95;;;1.55;;
29214;SDS011;16252;49.816;7.964;2022-08-01T15:21:25;1.25;;;1.15;;
29214;SDS011;16252;49.816;7.964;2022-08-01T15:23:51;2.88;;;1.55;;
29214;SDS011;16252;49.816;7.964;2022-08-01T15:26:16;1.30;;;1.20;;
29214;SDS011;16252;49.816;7.964;2022-08-01T15:28:41;2.90;;;1.15;;